createdAt,value
2023-02-28T00:02:25.093Z,96043.09
2023-02-28T00:04:54.081Z,96038.16
2023-02-28T00:07:20.591Z,96035.56
2023-02-28T00:09:47.076Z,96038.19
2023-02-28T00:12:13.625Z,96034.03
2023-02-28T00:14:40.103Z,96029.84
2023-02-28T00:17:06.550Z,96039.69
2023-02-28T00:19:33.151Z,96035.59
2023-02-28T00:21:59.598Z,96041.34
2023-02-28T00:24:26.175Z,96045.44
2023-02-28T00:26:52.879Z,96043.00
2023-02-28T00:29:19.370Z,96046.25
2023-02-28T00:31:45.977Z,96050.28
2023-02-28T00:34:12.551Z,96047.78
2023-02-28T00:36:39.093Z,96045.31
2023-02-28T00:39:05.745Z,96045.19
2023-02-28T00:41:32.644Z,96050.97
2023-02-28T00:43:59.135Z,96050.13
2023-02-28T00:46:25.815Z,96045.91
2023-02-28T00:48:52.351Z,96042.72
2023-02-28T00:51:18.890Z,96038.56
2023-02-28T00:53:45.564Z,96043.53
2023-02-28T00:56:12.034Z,96038.66
2023-02-28T00:58:38.643Z,96034.56
2023-02-28T01:01:05.603Z,96035.34
2023-02-28T01:03:32.180Z,96039.47
2023-02-28T01:05:58.897Z,96044.41
2023-02-28T01:08:26.966Z,96033.69
2023-02-28T01:10:53.816Z,96024.59
2023-02-28T01:13:20.658Z,96039.38
2023-02-28T01:15:53.862Z,96035.16
2023-02-28T01:18:20.782Z,96035.19
2023-02-28T01:20:47.732Z,96040.16
2023-02-28T01:23:14.406Z,96034.31
2023-02-28T01:25:41.109Z,96033.38
2023-02-28T01:28:07.674Z,96032.50
2023-02-28T01:30:34.405Z,96030.06
2023-02-28T01:33:00.954Z,96030.72
2023-02-28T01:35:27.416Z,96030.72
2023-02-28T01:37:54.353Z,96036.19
2023-02-28T01:40:21.051Z,96045.06
2023-02-28T01:42:47.488Z,96049.06
2023-02-28T01:45:27.149Z,96038.59
2023-02-28T01:47:57.398Z,96037.09
2023-02-28T01:50:27.298Z,96038.56
2023-02-28T01:52:56.126Z,96042.72
2023-02-28T01:55:23.476Z,96037.00
2023-02-28T01:57:53.605Z,96040.19
2023-02-28T02:00:24.725Z,96040.84
2023-02-28T02:02:53.962Z,96045.03
2023-02-28T02:05:25.452Z,96038.44
2023-02-28T02:08:02.661Z,96032.78
2023-02-28T02:10:41.016Z,96041.75
2023-02-28T02:13:30.676Z,96034.38
2023-02-28T02:16:12.305Z,96037.47
2023-02-28T02:18:43.289Z,96035.19
2023-02-28T02:21:12.722Z,96037.53
2023-02-28T02:23:53.048Z,96048.28
2023-02-28T02:26:22.320Z,96037.63
2023-02-28T02:29:10.178Z,96038.38
2023-02-28T02:31:58.286Z,96039.06
2023-02-28T02:34:39.197Z,96036.69
2023-02-28T02:37:14.258Z,96043.19
2023-02-28T02:39:53.272Z,96035.16
2023-02-28T02:42:28.771Z,96034.38
2023-02-28T02:45:02.714Z,96046.59
2023-02-28T02:47:31.834Z,96050.75
2023-02-28T02:50:01.942Z,96045.00
2023-02-28T02:52:35.613Z,96044.06
2023-02-28T02:55:03.511Z,96045.66
2023-02-28T02:57:46.308Z,96050.53
2023-02-28T03:00:13.332Z,96050.44
2023-02-28T03:02:40.333Z,96051.31
2023-02-28T03:05:10.313Z,96053.00
2023-02-28T03:07:36.862Z,96051.31
2023-02-28T03:10:03.549Z,96048.88
2023-02-28T03:12:38.465Z,96049.47
2023-02-28T03:15:24.994Z,96051.13
2023-02-28T03:18:20.836Z,96056.97
2023-02-28T03:20:50.520Z,96045.38
2023-02-28T03:23:32.633Z,96049.31
2023-02-28T03:26:03.366Z,96056.84
2023-02-28T03:28:38.049Z,96049.72
2023-02-28T03:31:11.252Z,96051.44
2023-02-28T03:33:42.244Z,96057.06
2023-02-28T03:36:15.945Z,96060.38
2023-02-28T03:38:50.457Z,96058.69
2023-02-28T03:41:25.589Z,96059.63
2023-02-28T03:44:16.760Z,96053.81
2023-02-28T03:46:49.139Z,96058.69
2023-02-28T03:49:19.805Z,96057.91
2023-02-28T03:51:47.226Z,96060.19
2023-02-28T03:54:20.761Z,96065.13
2023-02-28T03:56:57.132Z,96063.38
2023-02-28T03:59:29.641Z,96069.16
2023-02-28T04:01:59.313Z,96064.28
2023-02-28T04:04:25.887Z,96065.97
2023-02-28T04:06:53.336Z,96070.06
2023-02-28T04:09:19.985Z,96069.97
2023-02-28T04:11:52.726Z,96065.72
2023-02-28T04:14:19.735Z,96073.03
2023-02-28T04:16:46.571Z,96079.66
2023-02-28T04:19:14.076Z,96070.03
2023-02-28T04:21:58.599Z,96070.03
2023-02-28T04:24:27.170Z,96077.47
2023-02-28T04:26:55.862Z,96073.25
2023-02-28T04:29:28.221Z,96065.78
2023-02-28T04:31:56.295Z,96077.94
2023-02-28T04:34:22.797Z,96070.81
2023-02-28T04:37:10.072Z,96068.34
2023-02-28T04:39:38.340Z,96067.25
2023-02-28T04:42:05.438Z,96066.69
2023-02-28T04:44:32.528Z,96078.81
2023-02-28T04:46:59.013Z,96077.97
2023-02-28T04:49:25.870Z,96078.53
2023-02-28T04:51:53.828Z,96071.78
2023-02-28T04:54:20.618Z,96075.84
2023-02-28T04:56:47.375Z,96073.41
2023-02-28T04:59:13.809Z,96078.50
2023-02-28T05:01:40.270Z,96076.19
2023-02-28T05:04:07.240Z,96085.22
2023-02-28T05:06:34.494Z,96081.31
2023-02-28T05:09:01.021Z,96081.31
2023-02-28T05:11:30.784Z,96084.59
2023-02-28T05:13:57.485Z,96092.66
2023-02-28T05:16:24.047Z,96093.75
2023-02-28T05:18:50.981Z,96090.44
2023-02-28T05:21:27.516Z,96101.13
2023-02-28T05:23:54.673Z,96105.13
2023-02-28T05:26:21.464Z,96113.41
2023-02-28T05:28:48.001Z,96112.03
2023-02-28T05:31:14.771Z,96112.00
2023-02-28T05:33:41.232Z,96117.03
2023-02-28T05:36:08.126Z,96123.47
2023-02-28T05:38:36.285Z,96123.66
2023-02-28T05:41:08.657Z,96124.38
2023-02-28T05:43:35.629Z,96125.25
2023-02-28T05:46:10.525Z,96123.75
2023-02-28T05:48:38.780Z,96130.28
2023-02-28T05:51:06.262Z,96121.28
2023-02-28T05:53:33.127Z,96125.41
2023-02-28T05:56:00.361Z,96129.31
2023-02-28T05:58:31.540Z,96137.72
2023-02-28T06:00:59.251Z,96132.91
2023-02-28T06:03:26.221Z,96143.63
2023-02-28T06:05:52.936Z,96140.13
2023-02-28T06:08:19.575Z,96150.97
2023-02-28T06:10:46.434Z,96142.19
2023-02-28T06:13:13.845Z,96140.66
2023-02-28T06:15:40.546Z,96142.38
2023-02-28T06:18:07.455Z,96145.75
2023-02-28T06:20:34.457Z,96144.97
2023-02-28T06:23:01.171Z,96148.31
2023-02-28T06:25:28.988Z,96151.75
2023-02-28T06:27:57.000Z,96145.91
2023-02-28T06:30:27.634Z,96151.88
2023-02-28T06:32:57.684Z,96151.88
2023-02-28T06:35:24.343Z,96147.72
2023-02-28T06:37:51.098Z,96136.28
2023-02-28T06:40:18.094Z,96139.13
2023-02-28T06:42:48.019Z,96139.94
2023-02-28T06:45:17.761Z,96135.91
2023-02-28T06:47:44.648Z,96134.50
2023-02-28T06:50:13.480Z,96125.56
2023-02-28T06:52:40.586Z,96128.13
2023-02-28T06:55:08.872Z,96124.16
2023-02-28T06:57:36.465Z,96122.78
2023-02-28T07:00:08.687Z,96129.44
2023-02-28T07:02:40.432Z,96125.28
2023-02-28T07:05:07.337Z,96122.88
2023-02-28T07:07:34.412Z,96131.13
2023-02-28T07:10:01.159Z,96126.31
2023-02-28T07:12:27.673Z,96123.25
2023-02-28T07:14:57.468Z,96123.16
2023-02-28T07:17:24.125Z,96135.59
2023-02-28T07:19:50.651Z,96127.44
2023-02-28T07:22:17.267Z,96129.06
2023-02-28T07:24:43.970Z,96125.09
2023-02-28T07:27:10.634Z,96135.13
2023-02-28T07:29:38.454Z,96130.38
2023-02-28T07:32:05.333Z,96132.13
2023-02-28T07:34:31.890Z,96128.84
2023-02-28T07:36:58.646Z,96127.25
2023-02-28T07:39:25.323Z,96126.41
2023-02-28T07:41:51.867Z,96126.44
2023-02-28T07:44:18.636Z,96127.25
2023-02-28T07:46:45.596Z,96135.59
2023-02-28T07:49:12.185Z,96140.66
2023-02-28T07:51:39.040Z,96140.75
2023-02-28T07:54:09.936Z,96139.25
2023-02-28T07:56:36.520Z,96141.78
2023-02-28T07:59:03.170Z,96156.63
2023-02-28T08:01:30.247Z,96177.44
2023-02-28T08:03:58.058Z,96196.50
2023-02-28T08:06:25.766Z,96199.88
2023-02-28T08:08:52.684Z,96203.44
2023-02-28T08:11:19.378Z,96210.31
2023-02-28T08:13:47.032Z,96221.22
2023-02-28T08:16:23.192Z,96213.13
2023-02-28T08:18:51.391Z,96218.88
2023-02-28T08:21:18.270Z,96220.09
2023-02-28T08:23:45.072Z,96222.97
2023-02-28T08:26:12.261Z,96218.44
2023-02-28T08:28:39.391Z,96209.91
2023-02-28T08:31:11.709Z,96200.53
2023-02-28T08:33:41.333Z,96183.94
2023-02-28T08:36:09.190Z,96156.66
2023-02-28T08:38:36.800Z,96155.06
2023-02-28T08:41:09.833Z,96127.06
2023-02-28T08:43:36.676Z,96136.50
2023-02-28T08:46:04.688Z,96149.81
2023-02-28T08:48:32.935Z,96140.00
2023-02-28T08:51:08.333Z,96147.50
2023-02-28T08:53:37.135Z,96136.22
2023-02-28T08:56:09.431Z,96123.31
2023-02-28T08:58:37.802Z,96121.38
2023-02-28T09:01:10.599Z,96124.84
2023-02-28T09:03:37.664Z,96138.09
2023-02-28T09:06:05.833Z,96146.94
2023-02-28T09:08:32.875Z,96128.59
2023-02-28T09:11:02.398Z,96123.59
2023-02-28T09:13:30.276Z,96107.78
2023-02-28T09:16:01.910Z,96099.97
2023-02-28T09:18:28.657Z,96095.09
2023-02-28T09:20:57.815Z,96086.97
2023-02-28T09:23:24.898Z,96084.28
2023-02-28T09:25:53.566Z,96082.41
2023-02-28T09:28:21.011Z,96085.81
2023-02-28T09:30:49.564Z,96084.03
2023-02-28T09:33:17.215Z,96090.19
2023-02-28T09:35:44.391Z,96079.41
2023-02-28T09:38:11.362Z,96076.53
2023-02-28T09:40:50.420Z,96075.72
2023-02-28T09:43:18.748Z,96065.78
2023-02-28T09:45:50.222Z,96067.50
2023-02-28T09:48:23.075Z,96066.09
2023-02-28T09:50:57.674Z,96069.00
2023-02-28T09:53:34.774Z,96057.41
2023-02-28T09:56:09.416Z,96060.88
2023-02-28T09:58:50.799Z,96064.53
2023-02-28T10:01:27.174Z,96065.84
2023-02-28T10:04:26.187Z,96069.13
2023-02-28T10:06:54.096Z,96072.84
2023-02-28T10:09:28.247Z,96071.44
2023-02-28T10:12:00.826Z,96066.66
2023-02-28T10:14:29.571Z,96061.97
2023-02-28T10:17:15.033Z,96064.34
2023-02-28T10:19:50.326Z,96068.22
2023-02-28T10:22:30.434Z,96057.59
2023-02-28T10:25:02.159Z,96059.31
2023-02-28T10:27:33.360Z,96057.78
2023-02-28T10:30:04.928Z,96052.03
2023-02-28T10:32:35.929Z,96049.09
2023-02-28T10:35:12.383Z,96053.81
2023-02-28T10:37:42.745Z,96052.28
2023-02-28T10:40:32.815Z,96050.16
2023-02-28T10:43:20.529Z,96039.50
2023-02-28T10:46:15.932Z,96046.75
2023-02-28T10:48:45.944Z,96048.25
2023-02-28T10:51:17.951Z,96042.59
2023-02-28T10:53:59.525Z,96046.75
2023-02-28T10:56:26.767Z,96039.97
2023-02-28T10:58:56.205Z,96032.47
2023-02-28T11:01:38.622Z,96032.28
2023-02-28T11:04:41.196Z,96030.69
2023-02-28T11:07:24.579Z,96015.66
2023-02-28T11:09:54.354Z,96014.88
2023-02-28T11:12:26.729Z,96009.56
2023-02-28T11:14:57.373Z,96006.97
2023-02-28T11:17:32.842Z,96009.28
2023-02-28T11:20:15.431Z,96013.03
2023-02-28T11:22:45.470Z,96004.06
2023-02-28T11:25:22.673Z,95994.63
2023-02-28T11:27:54.256Z,95994.47
2023-02-28T11:30:25.221Z,95995.47
2023-02-28T11:32:51.908Z,95982.22
2023-02-28T11:35:24.577Z,95986.56
2023-02-28T11:37:51.427Z,95985.44
2023-02-28T11:40:20.566Z,95980.41
2023-02-28T11:42:54.598Z,95979.44
2023-02-28T11:45:46.233Z,95979.50
2023-02-28T11:48:22.471Z,95971.09
2023-02-28T11:51:01.551Z,95974.28
2023-02-28T11:53:46.968Z,95965.81
2023-02-28T11:56:25.392Z,95971.34
2023-02-28T11:59:04.951Z,95958.16
2023-02-28T12:01:43.739Z,95957.03
2023-02-28T12:04:29.293Z,95964.91
2023-02-28T12:07:00.384Z,95961.31
2023-02-28T12:09:42.487Z,95961.31
2023-02-28T12:12:36.610Z,95953.94
2023-02-28T12:15:09.413Z,95952.44
2023-02-28T12:17:43.680Z,95952.47
2023-02-28T12:20:19.809Z,95942.56
2023-02-28T12:22:49.406Z,95944.69
2023-02-28T12:25:31.149Z,95945.91
2023-02-28T12:27:58.063Z,95939.50
2023-02-28T12:30:33.550Z,95938.84
2023-02-28T12:33:12.027Z,95935.56
2023-02-28T12:35:58.739Z,95931.28
2023-02-28T12:38:28.856Z,95932.75
2023-02-28T12:41:09.691Z,95934.94
2023-02-28T12:43:39.632Z,95924.00
2023-02-28T12:46:25.719Z,95925.13
2023-02-28T12:48:57.736Z,95916.66
2023-02-28T12:51:25.875Z,95919.53
2023-02-28T12:54:06.378Z,95918.53
2023-02-28T12:56:57.594Z,95912.84
2023-02-28T12:59:48.427Z,95915.13
2023-02-28T13:02:21.423Z,95919.09
2023-02-28T13:05:12.901Z,95910.38
2023-02-28T13:08:09.204Z,95915.22
2023-02-28T13:10:57.755Z,95909.38
2023-02-28T13:13:27.592Z,95900.34
2023-02-28T13:16:08.968Z,95899.16
2023-02-28T13:18:46.185Z,95891.97
2023-02-28T13:21:30.428Z,95894.72
2023-02-28T13:24:05.495Z,95886.19
2023-02-28T13:26:32.138Z,95887.63
2023-02-28T13:29:01.888Z,95886.19
2023-02-28T13:31:29.178Z,95887.81
2023-02-28T13:33:58.305Z,95886.91
2023-02-28T13:36:33.426Z,95880.81
2023-02-28T13:39:03.336Z,95876.19
2023-02-28T13:41:30.995Z,95882.06
2023-02-28T13:44:11.382Z,95879.28
2023-02-28T13:46:58.505Z,95870.19
2023-02-28T13:49:28.961Z,95870.81
2023-02-28T13:52:08.571Z,95858.91
2023-02-28T13:54:47.112Z,95861.34
2023-02-28T13:57:38.417Z,95852.84
2023-02-28T14:00:08.763Z,95847.41
2023-02-28T14:02:58.492Z,95845.72
2023-02-28T14:05:28.781Z,95842.06
2023-02-28T14:07:59.332Z,95838.38
2023-02-28T14:11:04.620Z,95840.19
2023-02-28T14:13:48.017Z,95829.13
2023-02-28T14:16:16.103Z,95826.53
2023-02-28T14:18:51.037Z,95832.38
2023-02-28T14:21:30.252Z,95829.59
2023-02-28T14:24:02.992Z,95823.38
2023-02-28T14:27:02.892Z,95820.09
2023-02-28T14:29:52.133Z,95824.97
2023-02-28T14:32:51.080Z,95820.13
2023-02-28T14:36:01.901Z,95820.03
2023-02-28T14:38:32.699Z,95810.56
2023-02-28T14:41:01.997Z,95815.06
2023-02-28T14:43:29.553Z,95814.09
2023-02-28T14:45:58.861Z,95811.59
2023-02-28T22:00:53.784Z,95780.53
2023-02-28T22:03:20.322Z,95782.97
2023-02-28T22:05:46.790Z,95782.84
2023-02-28T22:08:13.463Z,95780.41
2023-02-28T22:10:39.930Z,95782.88
2023-02-28T22:13:06.720Z,95776.31
2023-02-28T22:15:37.431Z,95765.72
2023-02-28T22:18:04.102Z,95769.69
2023-02-28T22:20:30.543Z,95768.00
2023-02-28T22:22:58.341Z,95762.25
2023-02-28T22:25:24.911Z,95761.47
2023-02-28T22:27:51.374Z,95757.28
2023-02-28T22:30:18.316Z,95757.31
2023-02-28T22:32:44.783Z,95749.94
2023-02-28T22:35:11.302Z,95745.06
2023-02-28T22:37:37.951Z,95751.44
2023-02-28T22:40:05.253Z,95747.44
2023-02-28T22:42:34.576Z,95751.53
2023-02-28T22:45:01.214Z,95753.13
2023-02-28T22:47:27.732Z,95748.22
2023-02-28T22:49:54.200Z,95749.88
2023-02-28T22:52:20.759Z,95759.75
2023-02-28T22:54:50.030Z,95750.66
2023-02-28T22:57:16.494Z,95749.09
2023-02-28T22:59:43.159Z,95746.50
2023-02-28T23:02:09.611Z,95750.63
2023-02-28T23:04:36.208Z,95756.44
2023-02-28T23:07:02.771Z,95758.03
2023-02-28T23:09:29.317Z,95762.22
2023-02-28T23:11:56.042Z,95770.34
2023-02-28T23:14:22.682Z,95777.00
2023-02-28T23:16:51.938Z,95776.28
2023-02-28T23:19:31.829Z,95777.16
2023-02-28T23:21:59.346Z,95769.81
2023-02-28T23:24:27.644Z,95766.47
2023-02-28T23:26:57.127Z,95754.16
2023-02-28T23:29:25.114Z,95757.22
2023-02-28T23:31:52.179Z,95746.66
2023-02-28T23:34:26.245Z,95751.53
2023-02-28T23:36:53.953Z,95746.66
2023-02-28T23:39:21.237Z,95747.38
2023-02-28T23:41:48.014Z,95753.25
2023-02-28T23:44:17.040Z,95749.88
2023-02-28T23:46:45.215Z,95764.69
2023-02-28T23:49:11.855Z,95762.97
2023-02-28T23:51:38.494Z,95771.09
2023-02-28T23:54:05.091Z,95770.16
2023-02-28T23:56:32.399Z,95767.81
2023-02-28T23:58:59.132Z,95767.84
